Time;durP1;ratioP1;P1;durP2;ratioP2;P2;SDS_P1;SDS_P2;PMS_P1;PMS_P2;Temp;Humidity;BMP_temperature;BMP_pressure;BME280_temperature;BME280_humidity;BME280_pressure;Samples;Min_cycle;Max_cycle;Signal;HPM_P1;HPM_P2
2021/07/27 00:00:49;;;;;;;93.97;39.90;;;;;;;14.74;92.37;101294.72;4993762;28;20038;-80
2021/07/27 00:03:15;;;;;;;94.57;40.85;;;;;;;14.79;92.32;101296.94;4994962;28;20556;-79
2021/07/27 00:05:40;;;;;;;110.90;44.13;;;;;;;14.80;92.31;101295.94;4993622;28;20368;-80
2021/07/27 00:08:07;;;;;;;99.10;43.00;;;;;;;14.84;92.11;101300.00;4993714;28;20038;-80
2021/07/27 00:10:35;;;;;;;129.90;47.25;;;;;;;14.85;92.23;101300.81;4994107;28;20041;-80
2021/07/27 00:13:01;;;;;;;92.65;41.25;;;;;;;14.88;92.51;101303.19;4993183;28;20053;-80
2021/07/27 00:15:26;;;;;;;106.50;43.70;;;;;;;14.87;92.14;101294.31;4993647;28;20038;-80
2021/07/27 00:17:53;;;;;;;106.38;43.22;;;;;;;14.84;92.10;101293.78;4992916;28;20074;-80
2021/07/27 00:20:18;;;;;;;105.88;41.85;;;;;;;14.77;92.02;101294.41;4993424;28;20494;-80
2021/07/27 00:22:44;;;;;;;97.25;39.95;;;;;;;14.72;92.04;101286.00;4992750;28;20058;-80
2021/07/27 00:25:10;;;;;;;104.53;44.72;;;;;;;14.66;91.88;101285.78;4993341;28;20030;-81
2021/07/27 00:27:36;;;;;;;103.53;43.13;;;;;;;14.59;91.92;101294.41;4993289;28;20462;-80
2021/07/27 00:30:03;;;;;;;115.47;44.92;;;;;;;14.53;92.24;101289.66;4992644;28;20460;-80
2021/07/27 00:32:30;;;;;;;125.15;46.30;;;;;;;14.52;92.06;101284.47;4992899;28;20109;-80
2021/07/27 00:34:55;;;;;;;111.70;43.33;;;;;;;14.49;92.41;101287.44;4992643;28;20038;-80
2021/07/27 00:37:27;;;;;;;131.52;47.33;;;;;;;14.46;92.59;101283.22;4992918;28;20478;-79
2021/07/27 00:39:53;;;;;;;122.43;47.40;;;;;;;14.44;92.58;101286.06;4992414;28;20041;-79
2021/07/27 00:42:18;;;;;;;134.73;48.63;;;;;;;14.42;92.47;101281.84;4992920;28;20113;-80
2021/07/27 00:44:44;;;;;;;125.38;45.20;;;;;;;14.39;92.34;101282.16;4992387;28;20066;-80
2021/07/27 00:47:09;;;;;;;125.45;48.00;;;;;;;14.33;92.42;101280.09;4992984;28;20026;-79
2021/07/27 00:49:35;;;;;;;122.97;46.22;;;;;;;14.28;92.55;101270.69;4993102;28;20125;-80
2021/07/27 00:52:01;;;;;;;122.75;42.65;;;;;;;14.23;92.37;101264.97;4992218;28;20030;-80
2021/07/27 00:54:27;;;;;;;130.13;46.42;;;;;;;14.20;92.87;101262.59;4993138;28;20452;-79
2021/07/27 00:56:52;;;;;;;121.15;46.40;;;;;;;14.20;92.59;101272.47;4992539;28;20129;-79
2021/07/27 00:59:18;;;;;;;125.45;45.28;;;;;;;14.17;92.66;101262.91;4992848;28;20039;-79
2021/07/27 01:01:43;;;;;;;146.48;48.95;;;;;;;14.13;92.88;101271.38;4991409;28;20034;-79
2021/07/27 01:04:09;;;;;;;153.23;50.67;;;;;;;14.12;93.01;101267.84;4991678;28;20144;-79
2021/07/27 01:06:34;;;;;;;159.52;50.28;;;;;;;14.09;92.94;101262.81;4992771;28;20034;-79
2021/07/27 01:09:01;;;;;;;183.90;55.53;;;;;;;14.07;93.19;101262.97;4991193;28;20034;-79
2021/07/27 01:11:26;;;;;;;162.98;51.42;;;;;;;14.06;93.05;101260.44;4993081;28;20118;-79
2021/07/27 01:13:52;;;;;;;172.57;52.42;;;;;;;14.04;93.11;101260.59;4992280;28;20031;-79
2021/07/27 01:16:21;;;;;;;192.77;57.08;;;;;;;14.08;93.55;101258.47;4992551;28;20050;-79
2021/07/27 01:19:06;;;;;;;243.68;68.30;;;;;;;14.15;93.67;101256.00;4992082;28;20434;-80
2021/07/27 01:40:48;;;;;;;220.95;62.55;;;;;;;14.14;93.91;101236.44;4992699;28;20049;-79
2021/07/27 01:43:18;;;;;;;312.95;78.13;;;;;;;14.18;93.96;101236.97;4992689;28;20034;-78
2021/07/27 01:45:43;;;;;;;314.90;79.28;;;;;;;14.17;93.74;101241.50;4994832;28;20058;-78
2021/07/27 01:48:09;;;;;;;282.45;73.10;;;;;;;14.18;94.01;101239.66;4995789;28;20121;-78
2021/07/27 01:50:34;;;;;;;301.33;75.10;;;;;;;14.17;94.09;101243.34;4996668;28;20113;-78
2021/07/27 01:53:04;;;;;;;281.67;70.10;;;;;;;14.13;94.18;101242.78;4996013;28;20122;-79
2021/07/27 01:55:34;;;;;;;386.60;89.43;;;;;;;14.17;93.82;101238.00;4996011;28;20104;-79
2021/07/27 01:58:02;;;;;;;381.98;90.30;;;;;;;14.22;93.97;101239.19;4995425;28;20030;-79
2021/07/27 02:00:28;;;;;;;386.40;90.13;;;;;;;14.25;94.05;101240.72;4995987;28;20042;-79
2021/07/27 02:02:53;;;;;;;342.90;81.30;;;;;;;14.22;94.26;101236.50;4994138;28;20034;-79
2021/07/27 02:05:18;;;;;;;376.10;86.35;;;;;;;14.22;94.41;101236.50;4995702;28;20030;-79
2021/07/27 02:07:55;;;;;;;297.67;74.35;;;;;;;14.22;93.91;101235.69;4995802;28;20049;-79
2021/07/27 02:10:22;;;;;;;355.27;84.55;;;;;;;14.22;93.87;101241.84;4995884;28;20033;-79
2021/07/27 02:13:01;;;;;;;334.13;82.53;;;;;;;14.23;94.23;101229.34;4995739;28;20038;-79
2021/07/27 02:15:41;;;;;;;340.13;82.75;;;;;;;14.24;94.38;101231.00;4996015;28;20035;-79
2021/07/27 02:18:07;;;;;;;389.15;90.00;;;;;;;14.24;94.33;101229.19;4995083;28;20050;-79
2021/07/27 02:20:33;;;;;;;340.27;79.47;;;;;;;14.23;94.25;101226.66;4995865;28;20125;-79
2021/07/27 02:22:58;;;;;;;379.20;88.60;;;;;;;14.24;94.37;101222.97;4994950;28;20049;-79
2021/07/27 02:25:24;;;;;;;373.40;89.97;;;;;;;14.23;94.31;101219.47;4995515;28;20035;-79
2021/07/27 02:27:49;;;;;;;400.38;89.25;;;;;;;14.20;94.11;101232.31;4995380;28;20034;-78
2021/07/27 02:30:15;;;;;;;415.30;95.72;;;;;;;14.20;94.38;101229.66;4995003;28;20391;-79
2021/07/27 02:32:43;;;;;;;385.63;92.65;;;;;;;14.21;94.58;101226.81;4995636;28;20031;-79
2021/07/27 02:35:08;;;;;;;419.85;99.78;;;;;;;14.27;94.22;101222.66;4994550;28;20050;-79
2021/07/27 02:37:35;;;;;;;406.35;99.00;;;;;;;14.39;94.65;101232.16;4994132;28;20117;-79
2021/07/27 02:40:01;;;;;;;368.33;95.57;;;;;;;14.46;94.66;101235.91;4994560;28;20037;-79
2021/07/27 02:42:26;;;;;;;330.42;89.00;;;;;;;14.52;94.81;101236.28;4995137;28;20123;-78
2021/07/27 02:44:52;;;;;;;315.35;85.85;;;;;;;14.55;94.68;101234.09;4995098;28;20532;-78
2021/07/27 02:47:17;;;;;;;308.73;85.43;;;;;;;14.55;94.70;101246.66;4994551;28;20031;-78
2021/07/27 02:49:43;;;;;;;307.63;81.85;;;;;;;14.50;94.49;101238.28;4995020;28;20069;-79
2021/07/27 02:52:08;;;;;;;286.58;81.88;;;;;;;14.46;94.38;101237.72;4994352;28;20033;-78
2021/07/27 02:54:37;;;;;;;278.83;80.20;;;;;;;14.45;94.42;101236.88;4994837;28;20031;-78
2021/07/27 02:57:03;;;;;;;291.33;79.90;;;;;;;14.42;94.54;101234.53;4994174;28;20040;-79
2021/07/27 02:59:29;;;;;;;270.17;77.20;;;;;;;14.39;94.42;101226.81;4994966;28;20109;-78
2021/07/27 03:01:54;;;;;;;261.75;76.05;;;;;;;14.36;94.55;101220.91;4994928;28;20394;-78
2021/07/27 03:04:19;;;;;;;256.15;75.47;;;;;;;14.31;93.96;101218.69;4993905;28;20038;-78
2021/07/27 03:06:47;;;;;;;204.65;66.57;;;;;;;14.31;94.37;101215.19;4994879;28;20117;-78
2021/07/27 03:09:16;;;;;;;233.18;70.93;;;;;;;14.28;94.30;101211.81;4993890;28;20486;-78
2021/07/27 03:11:42;;;;;;;237.60;71.88;;;;;;;14.27;94.39;101211.97;4994574;28;20479;-77
2021/07/27 03:14:07;;;;;;;255.55;74.57;;;;;;;14.26;93.96;101210.28;4993864;28;20034;-78
2021/07/27 03:16:33;;;;;;;222.75;69.18;;;;;;;14.24;94.01;101206.91;4994499;28;20498;-77
2021/07/27 03:18:58;;;;;;;200.90;61.60;;;;;;;14.19;94.23;101203.88;4993789;28;20121;-77
2021/07/27 03:21:26;;;;;;;199.63;62.72;;;;;;;14.15;93.97;101197.97;4994639;28;20046;-78
2021/07/27 03:23:52;;;;;;;171.27;58.58;;;;;;;14.13;93.83;101201.81;4994266;28;20038;-77
2021/07/27 03:26:19;;;;;;;193.27;63.38;;;;;;;14.08;94.21;101199.59;4993608;28;20467;-77
2021/07/27 03:28:45;;;;;;;175.25;56.15;;;;;;;14.04;93.82;101212.44;4994556;28;20030;-78
2021/07/27 03:31:11;;;;;;;154.10;54.20;;;;;;;14.02;93.93;101208.25;4992859;28;20039;-78
2021/07/27 03:33:37;;;;;;;150.70;53.67;;;;;;;14.02;94.03;101201.06;4994321;28;20491;-78
2021/07/27 03:36:02;;;;;;;154.90;53.70;;;;;;;14.00;93.77;101207.53;4993602;28;20084;-79
2021/07/27 03:38:28;;;;;;;153.15;53.28;;;;;;;13.97;93.72;101206.00;4994420;28;20047;-78
2021/07/27 03:41:05;;;;;;;136.75;51.13;;;;;;;13.94;93.95;101200.97;4994392;28;20417;-78
2021/07/27 03:43:30;;;;;;;148.15;54.25;;;;;;;13.94;93.95;101203.63;4994634;28;20154;-78
2021/07/27 03:45:56;;;;;;;145.93;50.65;;;;;;;13.93;93.89;101193.94;4993981;28;20125;-78
2021/07/27 03:48:21;;;;;;;139.82;53.03;;;;;;;13.94;93.50;101200.97;4993384;28;20515;-78
2021/07/27 03:50:47;;;;;;;149.93;51.08;;;;;;;13.92;93.50;101206.47;4992800;28;20037;-78
2021/07/27 03:53:18;;;;;;;141.05;52.05;;;;;;;13.90;93.68;101212.97;4993323;28;20121;-79
2021/07/27 03:55:44;;;;;;;156.05;55.97;;;;;;;13.93;93.57;101215.34;4994840;28;20041;-78
2021/07/27 03:58:10;;;;;;;148.07;54.38;;;;;;;13.98;93.80;101222.91;4994074;28;20027;-78
2021/07/27 04:00:35;;;;;;;132.57;51.30;;;;;;;14.06;93.32;101225.66;4994562;28;20482;-77
2021/07/27 04:03:01;;;;;;;152.23;53.60;;;;;;;14.08;93.83;101223.69;4994186;28;20418;-78
2021/07/27 04:05:26;;;;;;;114.95;47.33;;;;;;;14.08;93.38;101205.78;4993857;28;20058;-78
2021/07/27 04:07:52;;;;;;;131.57;50.35;;;;;;;14.10;93.26;101214.50;4992962;28;20034;-78
2021/07/27 04:10:17;;;;;;;126.63;51.30;;;;;;;14.11;93.47;101210.00;4994102;28;20081;-78
2021/07/27 04:12:43;;;;;;;116.72;48.85;;;;;;;14.13;93.22;101217.88;4993043;28;20483;-79
2021/07/27 04:15:09;;;;;;;108.40;45.72;;;;;;;14.15;93.32;101215.88;4993162;28;20048;-79
2021/07/27 04:17:35;;;;;;;100.05;46.25;;;;;;;14.18;92.81;101216.44;4993805;28;20046;-78
2021/07/27 04:20:00;;;;;;;111.78;48.97;;;;;;;14.20;92.97;101214.44;4993417;28;20077;-79
2021/07/27 04:22:26;;;;;;;89.50;43.58;;;;;;;14.24;92.31;101210.47;4992682;28;20034;-79
2021/07/27 04:24:51;;;;;;;92.22;45.42;;;;;;;14.26;92.05;101207.63;4993396;28;20061;-78
2021/07/27 04:27:17;;;;;;;107.50;49.55;;;;;;;14.27;91.96;101207.47;4991707;28;20467;-78
2021/07/27 04:29:43;;;;;;;99.30;47.20;;;;;;;14.28;91.93;101209.13;4993316;28;20040;-79
2021/07/27 04:32:09;;;;;;;79.65;42.55;;;;;;;14.30;91.25;101208.97;4992770;28;20038;-78
2021/07/27 04:34:34;;;;;;;78.78;41.63;;;;;;;14.35;91.12;101204.00;4993244;28;20445;-78
2021/07/27 04:36:59;;;;;;;67.57;39.33;;;;;;;14.38;90.23;101193.00;4992182;28;20435;-79
2021/07/27 04:39:29;;;;;;;75.68;39.97;;;;;;;14.38;90.73;101195.66;4992749;28;20031;-79
2021/07/27 04:41:55;;;;;;;68.43;35.10;;;;;;;14.43;90.20;101204.06;4993404;28;20468;-79
2021/07/27 04:44:20;;;;;;;71.03;37.33;;;;;;;14.47;89.89;101204.59;4992490;28;20471;-79
2021/07/27 04:46:47;;;;;;;71.75;37.15;;;;;;;14.52;89.89;101212.16;4993092;28;20069;-79
2021/07/27 04:49:16;;;;;;;55.47;33.25;;;;;;;14.58;89.51;101201.66;4992470;28;20050;-79
2021/07/27 04:51:41;;;;;;;57.67;31.48;;;;;;;14.66;88.92;101208.09;4992969;28;20497;-79
2021/07/27 04:54:13;;;;;;;52.20;31.88;;;;;;;14.71;88.90;101213.84;4993054;28;20035;-79
2021/07/27 04:56:38;;;;;;;;;;;;;;;14.73;88.16;101206.50;4993609;28;20070;-79
2021/07/27 04:59:03;;;;;;;47.20;27.20;;;;;;;14.78;87.49;101204.19;4993034;28;19949;-79
2021/07/27 05:01:29;;;;;;;50.30;29.65;;;;;;;14.82;87.97;101210.91;4992338;28;20034;-79
2021/07/27 05:03:57;;;;;;;52.72;27.80;;;;;;;14.84;87.65;101208.06;4992847;28;20056;-78
2021/07/27 05:06:23;;;;;;;45.35;26.35;;;;;;;14.89;88.33;101203.91;4992544;28;20031;-79
2021/07/27 05:08:49;;;;;;;43.28;27.48;;;;;;;14.96;87.77;101209.50;4993023;28;20471;-78
2021/07/27 05:11:14;;;;;;;51.97;27.65;;;;;;;15.03;87.69;101201.63;4992529;28;20058;-80
2021/07/27 05:13:40;;;;;;;42.40;25.92;;;;;;;15.05;85.58;101199.63;4991834;28;20073;-78
2021/07/27 05:16:11;;;;;;;38.75;25.48;;;;;;;15.07;86.47;101190.44;4992980;28;20430;-78
2021/07/27 05:18:37;;;;;;;39.55;25.00;;;;;;;15.18;85.52;101196.53;4993590;28;20054;-79
2021/07/27 05:21:02;;;;;;;39.67;24.05;;;;;;;15.29;85.83;101191.72;4996791;28;20451;-82
2021/07/27 05:23:28;;;;;;;39.80;25.02;;;;;;;15.37;84.89;101193.59;4994789;28;20085;-82
2021/07/27 05:25:54;;;;;;;37.00;22.58;;;;;;;15.42;84.78;101188.59;4996468;28;20038;-76
2021/07/27 05:28:19;;;;;;;41.95;25.17;;;;;;;15.47;85.31;101194.28;4995973;28;20438;-75
2021/07/27 05:30:44;;;;;;;40.28;24.35;;;;;;;15.52;84.80;101191.13;4996635;28;20034;-75
2021/07/27 05:33:11;;;;;;;31.58;22.52;;;;;;;15.49;83.50;101191.44;4995194;28;20070;-76
2021/07/27 05:35:36;;;;;;;36.20;23.95;;;;;;;15.50;83.58;101196.66;4995980;28;20050;-76
2021/07/27 05:38:03;;;;;;;35.00;24.02;;;;;;;15.57;84.25;101190.63;4996557;28;20031;-77
2021/07/27 05:40:31;;;;;;;39.03;23.50;;;;;;;15.61;83.61;101189.31;4995856;28;20037;-78
2021/07/27 05:42:59;;;;;;;43.72;23.80;;;;;;;15.62;84.34;101186.47;4996439;28;20049;-77
2021/07/27 05:45:25;;;;;;;39.88;22.92;;;;;;;15.62;83.09;101186.47;4995558;28;20026;-77
2021/07/27 05:47:51;;;;;;;43.30;23.27;;;;;;;15.67;83.25;101194.00;4994908;28;20088;-76
2021/07/27 05:50:18;;;;;;;37.08;23.50;;;;;;;15.68;84.14;101201.06;4995635;28;20054;-77
2021/07/27 05:52:43;;;;;;;38.65;21.85;;;;;;;15.67;83.77;101207.41;4996183;28;20035;-79
2021/07/27 05:55:09;;;;;;;34.55;21.75;;;;;;;15.69;83.04;101208.94;4996152;28;20035;-81
2021/07/27 05:57:34;;;;;;;40.85;22.33;;;;;;;15.62;82.34;101196.34;4993130;28;20045;-80
2021/07/27 06:00:00;;;;;;;36.17;22.67;;;;;;;15.59;83.06;101199.38;4993286;28;20092;-77
2021/07/27 06:02:26;;;;;;;37.47;23.65;;;;;;;15.56;83.98;101197.84;4992606;28;20041;-79
2021/07/27 06:04:51;;;;;;;37.25;21.33;;;;;;;15.57;84.17;101194.16;4993185;28;20164;-75
2021/07/27 06:07:16;;;;;;;45.58;23.48;;;;;;;15.62;84.60;101191.81;4993425;28;20507;-78
2021/07/27 06:09:42;;;;;;;30.33;20.63;;;;;;;15.68;82.78;101190.34;4992530;28;20125;-78
2021/07/27 06:12:10;;;;;;;40.88;23.02;;;;;;;15.81;84.03;101192.59;4992987;28;20120;-76
2021/07/27 06:14:36;;;;;;;37.00;20.52;;;;;;;15.91;83.78;101187.88;4992290;28;20129;-76
2021/07/27 06:17:01;;;;;;;40.83;23.23;;;;;;;15.99;83.03;101189.75;4993021;28;20217;-76
2021/07/27 06:19:26;;;;;;;36.60;21.80;;;;;;;16.05;82.27;101183.72;4992167;28;20050;-78
2021/07/27 06:21:52;;;;;;;34.10;20.40;;;;;;;16.19;83.46;101193.78;4992744;28;20030;-78
2021/07/27 06:24:17;;;;;;;34.63;21.30;;;;;;;16.32;82.12;101187.91;5008196;28;20038;-79
2021/07/27 06:26:43;;;;;;;37.35;20.88;;;;;;;16.49;81.98;101188.72;4992194;28;20039;-78
2021/07/27 06:29:09;;;;;;;36.97;20.33;;;;;;;16.71;80.22;101192.56;4992424;28;20494;-77
2021/07/27 06:31:35;;;;;;;28.00;18.67;;;;;;;16.90;79.55;101193.25;4992190;28;20084;-78
2021/07/27 06:34:00;;;;;;;32.40;19.52;;;;;;;16.96;79.02;101197.06;4992630;28;20485;-77
2021/07/27 06:36:27;;;;;;;30.05;18.67;;;;;;;16.95;78.37;101190.03;4990810;28;20128;-78
2021/07/27 06:38:53;;;;;;;36.08;20.85;;;;;;;16.93;78.94;101198.28;4994560;28;20046;-78
2021/07/27 06:41:18;;;;;;;32.78;20.13;;;;;;;16.96;77.47;101205.13;4994732;28;20427;-78
2021/07/27 06:43:44;;;;;;;34.35;19.08;;;;;;;16.91;78.16;101206.50;4994596;28;20062;-78
2021/07/27 06:46:10;;;;;;;35.65;20.23;;;;;;;16.96;78.57;101211.38;4994954;28;20038;-79
2021/07/27 06:48:36;;;;;;;28.10;19.63;;;;;;;17.01;78.28;101208.97;4994633;28;20039;-78
2021/07/27 06:51:14;;;;;;;29.42;19.83;;;;;;;17.23;78.18;101202.03;4995199;28;20026;-77
2021/07/27 06:53:41;;;;;;;32.83;18.63;;;;;;;17.47;77.88;101208.31;4994407;28;20039;-77
2021/07/27 06:56:07;;;;;;;24.25;17.13;;;;;;;17.78;76.52;101202.09;4994065;28;20434;-77
2021/07/27 06:58:34;;;;;;;24.95;17.45;;;;;;;17.92;76.66;101204.03;4994355;28;20041;-78
2021/07/27 07:01:04;;;;;;;38.05;18.10;;;;;;;18.02;76.79;101206.50;4994837;28;20065;-78
2021/07/27 07:03:30;;;;;;;28.88;16.60;;;;;;;18.11;76.06;101208.13;4994580;28;20027;-78
2021/07/27 07:05:55;;;;;;;24.30;16.50;;;;;;;18.14;75.22;101209.63;4994852;28;20417;-78
2021/07/27 07:08:22;;;;;;;23.45;14.10;;;;;;;18.20;74.01;101210.72;4994936;28;20046;-77
2021/07/27 07:10:54;;;;;;;26.95;14.95;;;;;;;18.25;75.02;101211.03;4994013;28;20529;-79
2021/07/27 07:13:20;;;;;;;22.08;15.20;;;;;;;18.18;73.20;101210.09;4994662;28;20040;-77
2021/07/27 07:15:45;;;;;;;25.48;14.10;;;;;;;18.26;75.40;101212.72;4994147;28;20138;-78
2021/07/27 07:18:10;;;;;;;25.55;13.75;;;;;;;18.30;74.10;101208.63;4994479;28;20058;-77
2021/07/27 07:20:36;;;;;;;28.20;14.25;;;;;;;18.37;74.52;101208.75;4994192;28;20038;-77
2021/07/27 07:23:01;;;;;;;22.45;14.30;;;;;;;18.42;74.45;101215.28;4994503;28;20068;-76
2021/07/27 07:25:26;;;;;;;22.30;15.20;;;;;;;18.55;73.70;101220.03;4994329;28;20065;-77
2021/07/27 07:27:52;;;;;;;27.88;15.60;;;;;;;18.55;74.52;101224.59;4992785;28;20073;-78
2021/07/27 07:30:17;;;;;;;21.40;15.82;;;;;;;18.58;72.24;101219.66;4994533;28;20034;-77
2021/07/27 07:32:42;;;;;;;25.90;15.70;;;;;;;18.49;72.81;101218.91;4993613;28;20034;-78
2021/07/27 07:35:08;;;;;;;29.25;17.10;;;;;;;18.37;74.76;101222.22;4994288;28;20065;-77
2021/07/27 07:37:34;;;;;;;26.58;16.33;;;;;;;18.35;74.66;101216.16;4993910;28;20117;-77
2021/07/27 07:39:59;;;;;;;24.20;16.33;;;;;;;18.36;76.22;101215.97;4992769;28;20088;-77
2021/07/27 07:42:24;;;;;;;26.88;15.90;;;;;;;18.37;75.39;101214.16;4993269;28;20474;-77
2021/07/27 07:44:50;;;;;;;29.63;16.23;;;;;;;18.38;75.78;101223.91;4993359;28;20398;-77
2021/07/27 07:47:15;;;;;;;28.58;16.13;;;;;;;18.47;73.73;101217.44;4993790;28;20437;-77
2021/07/27 07:49:40;;;;;;;25.38;16.15;;;;;;;18.50;73.94;101220.59;4993753;28;20534;-75
2021/07/27 07:52:06;;;;;;;27.63;15.15;;;;;;;18.53;74.62;101214.00;4993994;28;20042;-74
2021/07/27 07:54:33;;;;;;;29.75;17.33;;;;;;;18.42;74.67;101217.13;4993819;28;20037;-74
2021/07/27 07:56:58;;;;;;;28.65;16.27;;;;;;;18.45;74.71;101216.75;4993736;28;20077;-74
2021/07/27 07:59:23;;;;;;;30.25;16.50;;;;;;;18.50;75.94;101209.81;4993581;28;20034;-75
2021/07/27 08:01:54;;;;;;;29.13;17.20;;;;;;;18.43;74.69;101208.03;4993364;28;20030;-75
2021/07/27 08:04:19;;;;;;;25.92;17.35;;;;;;;18.47;75.54;101214.75;4993941;28;20038;-74
2021/07/27 08:06:45;;;;;;;26.30;17.55;;;;;;;18.43;74.61;101208.84;4993154;28;20414;-74
2021/07/27 08:09:10;;;;;;;27.02;17.48;;;;;;;18.44;76.47;101209.72;4993520;28;20402;-78
2021/07/27 08:11:38;;;;;;;31.17;18.85;;;;;;;18.43;75.94;101211.56;4993518;28;20650;-78
2021/07/27 08:14:04;;;;;;;27.95;17.92;;;;;;;18.42;74.69;101215.28;4994046;28;20054;-77
2021/07/27 08:16:29;;;;;;;30.33;18.52;;;;;;;18.35;75.81;101211.63;4994166;28;20521;-77
2021/07/27 08:18:55;;;;;;;29.60;19.20;;;;;;;18.20;76.27;101222.34;4993618;28;20058;-77
2021/07/27 08:21:26;;;;;;;30.13;19.67;;;;;;;18.09;76.67;101214.69;4993488;28;20117;-77
2021/07/27 08:23:51;;;;;;;34.88;20.88;;;;;;;17.97;77.99;101214.25;4992013;28;20038;-77
2021/07/27 08:26:18;;;;;;;33.70;20.00;;;;;;;18.00;77.18;101218.47;4993512;28;20033;-77
2021/07/27 08:28:45;;;;;;;30.25;20.20;;;;;;;17.91;77.21;101209.59;4991434;28;20031;-77
2021/07/27 08:31:10;;;;;;;35.15;22.38;;;;;;;17.96;78.76;101216.13;4993443;28;20422;-77
2021/07/27 08:33:36;;;;;;;34.50;21.92;;;;;;;18.06;79.26;101215.88;4993369;28;20035;-77
2021/07/27 08:36:02;;;;;;;33.63;22.15;;;;;;;18.15;77.18;101211.28;4992917;28;20128;-77
2021/07/27 08:38:28;;;;;;;39.97;22.20;;;;;;;18.28;78.15;101222.28;4991919;28;20058;-76
2021/07/27 08:40:57;;;;;;;39.42;22.58;;;;;;;18.37;77.05;101219.53;4992537;28;20116;-77
2021/07/27 08:43:23;;;;;;;38.42;23.63;;;;;;;18.42;76.93;101231.44;4993028;28;20124;-77
2021/07/27 08:45:50;;;;;;;34.58;22.42;;;;;;;18.48;76.72;101222.63;4992376;28;20081;-77
2021/07/27 08:48:16;;;;;;;36.97;22.85;;;;;;;18.53;76.58;101230.16;4993145;28;20034;-77
2021/07/27 08:50:44;;;;;;;34.47;21.73;;;;;;;18.57;74.67;101223.41;4991278;28;20522;-77
2021/07/27 08:53:09;;;;;;;34.80;21.65;;;;;;;18.59;75.39;101221.34;4992751;28;20081;-77
2021/07/27 08:55:34;;;;;;;35.05;22.23;;;;;;;18.59;75.64;101224.03;4992785;28;20034;-77
2021/07/27 08:58:00;;;;;;;34.30;22.73;;;;;;;18.60;76.81;101228.44;4991398;28;20041;-77
2021/07/27 09:00:28;;;;;;;33.97;23.45;;;;;;;18.49;76.26;101228.84;4992982;28;20026;-76
2021/07/27 09:02:54;;;;;;;32.30;22.05;;;;;;;18.44;75.73;101239.34;4992443;28;20035;-76
2021/07/27 09:05:20;;;;;;;30.38;22.50;;;;;;;18.33;76.58;101237.91;4992715;28;20121;-76
2021/07/27 09:07:45;;;;;;;40.22;23.40;;;;;;;18.27;77.19;101234.09;4992195;28;20097;-76
2021/07/27 09:10:16;;;;;;;35.38;24.90;;;;;;;18.24;77.51;101237.16;4992631;28;20034;-77
2021/07/27 09:13:02;;;;;;;37.90;25.08;;;;;;;18.18;77.23;101237.84;4991688;28;20097;-78
2021/07/27 09:15:29;;;;;;;41.65;26.63;;;;;;;18.18;78.52;101239.72;4992586;28;20034;-76
2021/07/27 09:17:58;;;;;;;39.60;26.20;;;;;;;18.22;78.00;101241.03;4992042;28;20050;-75
2021/07/27 09:20:30;;;;;;;40.13;27.90;;;;;;;18.15;79.82;101244.44;4992696;28;20046;-75
2021/07/27 09:22:57;;;;;;;51.10;30.55;;;;;;;18.09;81.44;101241.63;4992243;28;20041;-76
2021/07/27 09:25:26;;;;;;;44.10;30.42;;;;;;;17.93;81.68;101243.41;4992885;28;20031;-75
2021/07/27 09:28:11;;;;;;;56.40;32.20;;;;;;;17.78;82.05;101242.47;4992181;28;20110;-75
2021/07/27 09:30:38;;;;;;;41.92;28.95;;;;;;;17.68;82.46;101245.38;4992827;28;20062;-75
2021/07/27 09:33:05;;;;;;;40.55;28.30;;;;;;;17.51;83.80;101250.00;4992125;28;20490;-75
2021/07/27 09:35:31;;;;;;;45.95;29.83;;;;;;;17.44;85.32;101246.31;4991352;28;20454;-76
2021/07/27 09:38:13;;;;;;;44.70;28.83;;;;;;;17.37;86.08;101253.41;4992095;28;20038;-75
2021/07/27 09:41:04;;;;;;;29.83;21.67;;;;;;;17.31;86.42;101254.09;4992936;28;20039;-76
2021/07/27 09:43:30;;;;;;;29.45;18.60;;;;;;;17.16;86.26;101253.97;4991279;28;20041;-75
2021/07/27 09:46:00;;;;;;;24.48;15.52;;;;;;;17.10;85.69;101259.03;4991706;28;20030;-75
2021/07/27 09:48:26;;;;;;;22.88;14.23;;;;;;;17.21;85.44;101256.97;4992461;28;20041;-80
2021/07/27 09:50:53;;;;;;;31.17;13.88;;;;;;;17.44;85.13;101263.28;4991760;28;20034;-76
2021/07/27 09:53:19;;;;;;;25.02;13.00;;;;;;;17.97;83.50;101268.09;4992309;28;20113;-76
2021/07/27 09:55:45;;;;;;;22.67;9.68;;;;;;;18.76;80.10;101264.31;4992443;28;20118;-76
2021/07/27 09:58:11;;;;;;;19.55;9.05;;;;;;;20.06;76.17;101263.84;4991696;28;20046;-76
2021/07/27 10:01:07;;;;;;;21.02;6.43;;;;;;;22.13;65.57;101258.91;4992326;28;20092;-76
2021/07/27 10:03:57;;;;;;;17.13;5.65;;;;;;;23.72;60.16;101253.53;4992654;28;20105;-77
2021/07/27 10:06:34;;;;;;;16.60;5.35;;;;;;;23.20;59.12;101266.28;4995242;28;20121;-76
2021/07/27 10:09:01;;;;;;;17.48;4.78;;;;;;;22.73;63.72;101260.03;4995317;28;20120;-76
2021/07/27 10:11:37;;;;;;;14.63;4.38;;;;;;;22.22;60.13;101256.03;4995653;28;20137;-78
2021/07/27 10:14:11;;;;;;;9.20;3.38;;;;;;;22.02;61.49;101252.25;4993654;28;20066;-86
2021/07/27 10:16:36;;;;;;;7.82;3.53;;;;;;;21.60;62.40;101254.19;4995708;28;20089;-79
2021/07/27 10:19:12;;;;;;;11.88;3.25;;;;;;;20.89;63.95;101257.94;4994918;28;20475;-78
2021/07/27 10:21:38;;;;;;;9.48;3.40;;;;;;;20.35;63.76;101259.34;4995773;28;20113;-77
2021/07/27 10:24:12;;;;;;;12.25;3.70;;;;;;;20.16;65.88;101265.38;4994944;28;20073;-77
2021/07/27 10:26:38;;;;;;;13.50;4.20;;;;;;;19.78;66.52;101271.84;4995473;28;20035;-77
2021/07/27 10:29:04;;;;;;;10.75;3.92;;;;;;;19.58;66.62;101268.84;4993683;28;20034;-77
2021/07/27 10:31:50;;;;;;;11.70;3.75;;;;;;;19.42;70.59;101269.03;4995603;28;20427;-79
2021/07/27 10:34:15;;;;;;;15.00;4.88;;;;;;;19.19;71.58;101265.41;4994555;28;20042;-79
2021/07/27 10:36:47;;;;;;;13.63;4.70;;;;;;;18.98;72.63;101259.94;4994174;28;20134;-77
2021/07/27 10:39:19;;;;;;;14.60;4.50;;;;;;;18.85;72.30;101263.22;4994554;28;20512;-78
2021/07/27 10:41:50;;;;;;;15.23;4.90;;;;;;;18.64;74.06;101256.66;4993810;28;20598;-77
2021/07/27 10:44:20;;;;;;;12.18;4.53;;;;;;;18.42;75.77;101258.38;4994690;28;20027;-77
2021/07/27 10:46:48;;;;;;;15.00;4.50;;;;;;;18.26;74.84;101248.56;4993638;28;20034;-77
2021/07/27 10:49:25;;;;;;;18.00;4.70;;;;;;;18.21;77.86;101248.25;4994635;28;20339;-77
2021/07/27 10:51:59;;;;;;;13.10;4.57;;;;;;;18.11;76.53;101243.13;4995166;28;20062;-77
2021/07/27 10:54:30;;;;;;;12.85;4.30;;;;;;;18.15;75.25;101249.84;4994916;28;20038;-78
2021/07/27 10:57:07;;;;;;;12.20;4.27;;;;;;;18.11;76.40;101248.50;4994385;28;20065;-77
2021/07/27 10:59:35;;;;;;;11.50;3.65;;;;;;;18.14;77.59;101253.53;4995142;28;20280;-77
2021/07/27 11:02:12;;;;;;;16.90;4.63;;;;;;;18.37;79.48;101260.78;4994103;28;20101;-77
2021/07/27 11:04:38;;;;;;;15.05;4.50;;;;;;;18.85;75.74;101257.81;4994712;28;20038;-77
2021/07/27 11:07:16;;;;;;;17.45;4.35;;;;;;;19.31;74.03;101252.28;4994240;28;20030;-77
2021/07/27 11:09:58;;;;;;;13.95;3.95;;;;;;;19.60;70.83;101239.81;4994883;28;20034;-77
2021/07/27 11:12:41;;;;;;;12.60;3.78;;;;;;;19.92;71.85;101235.00;4994623;28;20116;-77
2021/07/27 11:15:14;;;;;;;13.23;4.40;;;;;;;20.47;67.53;101239.88;4992711;28;20034;-77
2021/07/27 11:17:51;;;;;;;11.50;3.60;;;;;;;20.66;65.30;101225.75;4995788;28;20124;-78
2021/07/27 11:20:22;;;;;;;9.20;3.38;;;;;;;21.18;64.24;101233.56;4995275;28;20048;-80
2021/07/27 11:22:51;;;;;;;9.77;3.25;;;;;;;21.41;65.92;101239.50;4994625;28;20045;-80
2021/07/27 11:25:20;;;;;;;13.93;3.65;;;;;;;21.76;63.35;101236.75;4990443;28;20026;-79
2021/07/27 11:27:46;;;;;;;17.17;3.95;;;;;;;21.84;64.19;101243.88;4991578;28;20474;-80